sensor_id;sensor_type;location;lat;lon;timestamp;pressure;altitude;pressure_sealevel;temperature;humidity
58761;BME280;44529;47.464;19.014;2023-03-01T00:01:53;101297.66;;;5.31;63.01
58761;BME280;44529;47.464;19.014;2023-03-01T00:04:55;101289.06;;;5.29;62.69
58761;BME280;44529;47.464;19.014;2023-03-01T00:07:58;101289.50;;;5.21;62.32
58761;BME280;44529;47.464;19.014;2023-03-01T00:11:11;101287.44;;;5.28;62.32
58761;BME280;44529;47.464;19.014;2023-03-01T00:14:14;101287.94;;;5.25;63.26
58761;BME280;44529;47.464;19.014;2023-03-01T00:17:18;101287.87;;;5.20;63.41
58761;BME280;44529;47.464;19.014;2023-03-01T00:20:21;101292.13;;;5.15;63.75
58761;BME280;44529;47.464;19.014;2023-03-01T00:23:24;101293.53;;;5.01;64.13
58761;BME280;44529;47.464;19.014;2023-03-01T00:26:26;101305.84;;;4.97;64.79
58761;BME280;44529;47.464;19.014;2023-03-01T00:29:29;101307.56;;;5.08;64.24
58761;BME280;44529;47.464;19.014;2023-03-01T00:32:32;101308.16;;;5.10;63.94
58761;BME280;44529;47.464;19.014;2023-03-01T00:35:35;101308.72;;;5.12;63.32
58761;BME280;44529;47.464;19.014;2023-03-01T00:38:43;101299.41;;;5.20;63.19
58761;BME280;44529;47.464;19.014;2023-03-01T00:41:46;101299.66;;;5.19;63.10
58761;BME280;44529;47.464;19.014;2023-03-01T00:44:48;101294.25;;;5.13;63.48
58761;BME280;44529;47.464;19.014;2023-03-01T00:47:51;101310.69;;;5.00;64.51
58761;BME280;44529;47.464;19.014;2023-03-01T00:50:53;101309.25;;;4.93;64.66
58761;BME280;44529;47.464;19.014;2023-03-01T00:53:59;101303.72;;;4.99;64.81
58761;BME280;44529;47.464;19.014;2023-03-01T00:57:01;101301.59;;;5.01;64.48
58761;BME280;44529;47.464;19.014;2023-03-01T01:00:06;101301.91;;;5.05;64.61
58761;BME280;44529;47.464;19.014;2023-03-01T01:03:08;101300.19;;;5.15;64.13
58761;BME280;44529;47.464;19.014;2023-03-01T01:06:20;101298.50;;;5.09;64.27
58761;BME280;44529;47.464;19.014;2023-03-01T01:09:22;101288.88;;;5.13;63.92
58761;BME280;44529;47.464;19.014;2023-03-01T01:12:25;101288.94;;;5.19;64.00
58761;BME280;44529;47.464;19.014;2023-03-01T01:15:27;101284.72;;;5.23;64.14
58761;BME280;44529;47.464;19.014;2023-03-01T01:18:30;101277.78;;;5.27;63.33
58761;BME280;44529;47.464;19.014;2023-03-01T01:21:32;101263.06;;;5.29;62.92
58761;BME280;44529;47.464;19.014;2023-03-01T01:24:35;101266.88;;;5.11;64.14
58761;BME280;44529;47.464;19.014;2023-03-01T01:27:38;101262.66;;;5.15;64.13
58761;BME280;44529;47.464;19.014;2023-03-01T01:30:40;101260.81;;;5.21;64.07
58761;BME280;44529;47.464;19.014;2023-03-01T01:33:44;101272.53;;;5.15;64.23
58761;BME280;44529;47.464;19.014;2023-03-01T01:36:49;101259.56;;;5.07;64.39
58761;BME280;44529;47.464;19.014;2023-03-01T01:39:52;101263.69;;;5.14;64.19
58761;BME280;44529;47.464;19.014;2023-03-01T01:42:55;101260.59;;;5.23;64.01
58761;BME280;44529;47.464;19.014;2023-03-01T01:46:02;101253.59;;;5.22;64.14
58761;BME280;44529;47.464;19.014;2023-03-01T01:49:16;101248.72;;;5.19;63.67
58761;BME280;44529;47.464;19.014;2023-03-01T01:52:27;101241.41;;;5.09;64.41
58761;BME280;44529;47.464;19.014;2023-03-01T01:55:32;101241.62;;;5.07;64.73
58761;BME280;44529;47.464;19.014;2023-03-01T01:58:35;101236.69;;;5.21;63.00
58761;BME280;44529;47.464;19.014;2023-03-01T02:01:38;101226.66;;;5.11;64.23
58761;BME280;44529;47.464;19.014;2023-03-01T02:04:41;101230.66;;;5.09;64.14
58761;BME280;44529;47.464;19.014;2023-03-01T02:07:44;101225.25;;;5.04;64.87
58761;BME280;44529;47.464;19.014;2023-03-01T02:10:49;101227.47;;;5.12;64.10
58761;BME280;44529;47.464;19.014;2023-03-01T02:13:54;101232.03;;;5.11;64.58
58761;BME280;44529;47.464;19.014;2023-03-01T02:16:57;101228.00;;;5.09;64.41
58761;BME280;44529;47.464;19.014;2023-03-01T02:23:33;101229.47;;;5.00;64.94
58761;BME280;44529;47.464;19.014;2023-03-01T02:26:42;101230.00;;;4.97;65.56
58761;BME280;44529;47.464;19.014;2023-03-01T02:29:47;101226.25;;;4.98;65.08
58761;BME280;44529;47.464;19.014;2023-03-01T02:32:51;101222.69;;;4.92;65.86
58761;BME280;44529;47.464;19.014;2023-03-01T02:35:54;101219.94;;;4.87;66.37
58761;BME280;44529;47.464;19.014;2023-03-01T02:38:59;101222.16;;;4.95;67.25
58761;BME280;44529;47.464;19.014;2023-03-01T02:42:04;101215.81;;;5.01;66.57
58761;BME280;44529;47.464;19.014;2023-03-01T02:45:07;101211.53;;;5.00;67.61
58761;BME280;44529;47.464;19.014;2023-03-01T02:48:09;101211.97;;;4.92;67.40
58761;BME280;44529;47.464;19.014;2023-03-01T02:51:34;101197.06;;;5.01;67.84
58761;BME280;44529;47.464;19.014;2023-03-01T02:54:48;101203.59;;;5.10;67.40
58761;BME280;44529;47.464;19.014;2023-03-01T02:57:55;101196.91;;;5.13;67.88
58761;BME280;44529;47.464;19.014;2023-03-01T03:00:58;101207.53;;;5.03;68.51
58761;BME280;44529;47.464;19.014;2023-03-01T03:04:09;101202.66;;;5.00;68.42
58761;BME280;44529;47.464;19.014;2023-03-01T03:07:12;101206.69;;;4.97;68.70
58761;BME280;44529;47.464;19.014;2023-03-01T03:10:21;101196.50;;;4.99;68.62
58761;BME280;44529;47.464;19.014;2023-03-01T03:13:23;101202.56;;;4.89;69.13
58761;BME280;44529;47.464;19.014;2023-03-01T03:16:30;101198.31;;;4.94;68.79
58761;BME280;44529;47.464;19.014;2023-03-01T03:19:33;101192.50;;;5.02;68.46
58761;BME280;44529;47.464;19.014;2023-03-01T03:22:36;101191.22;;;5.04;68.08
58761;BME280;44529;47.464;19.014;2023-03-01T03:25:39;101176.81;;;5.10;68.51
58761;BME280;44529;47.464;19.014;2023-03-01T03:28:41;101173.53;;;5.08;68.91
58761;BME280;44529;47.464;19.014;2023-03-01T03:31:44;101173.53;;;5.08;68.86
58761;BME280;44529;47.464;19.014;2023-03-01T03:34:46;101176.75;;;5.05;69.03
58761;BME280;44529;47.464;19.014;2023-03-01T03:37:52;101170.13;;;5.13;68.39
58761;BME280;44529;47.464;19.014;2023-03-01T03:41:06;101176.41;;;5.02;69.20
58761;BME280;44529;47.464;19.014;2023-03-01T03:44:09;101184.47;;;5.02;69.76
58761;BME280;44529;47.464;19.014;2023-03-01T03:47:11;101183.91;;;5.22;68.53
58761;BME280;44529;47.464;19.014;2023-03-01T03:50:16;101184.84;;;5.10;68.86
58761;BME280;44529;47.464;19.014;2023-03-01T03:53:21;101182.66;;;5.07;68.94
58761;BME280;44529;47.464;19.014;2023-03-01T03:56:23;101178.97;;;5.13;68.58
58761;BME280;44529;47.464;19.014;2023-03-01T03:59:30;101183.97;;;5.05;69.27
58761;BME280;44529;47.464;19.014;2023-03-01T04:02:32;101186.53;;;4.95;69.32
58761;BME280;44529;47.464;19.014;2023-03-01T04:05:37;101184.72;;;5.00;69.30
58761;BME280;44529;47.464;19.014;2023-03-01T04:08:40;101178.00;;;4.98;69.07
58761;BME280;44529;47.464;19.014;2023-03-01T04:11:43;101176.22;;;5.08;68.85
58761;BME280;44529;47.464;19.014;2023-03-01T04:14:45;101174.66;;;5.12;68.53
58761;BME280;44529;47.464;19.014;2023-03-01T04:17:51;101173.47;;;5.25;67.18
58761;BME280;44529;47.464;19.014;2023-03-01T04:20:54;101172.53;;;5.14;66.65
58761;BME280;44529;47.464;19.014;2023-03-01T04:23:57;101168.84;;;5.21;66.05
58761;BME280;44529;47.464;19.014;2023-03-01T04:27:00;101175.47;;;5.13;65.65
58761;BME280;44529;47.464;19.014;2023-03-01T04:30:03;101182.78;;;5.18;65.77
58761;BME280;44529;47.464;19.014;2023-03-01T04:33:10;101189.13;;;5.11;65.31
58761;BME280;44529;47.464;19.014;2023-03-01T04:36:15;101183.78;;;5.11;65.81
58761;BME280;44529;47.464;19.014;2023-03-01T04:39:18;101184.47;;;5.02;66.23
58761;BME280;44529;47.464;19.014;2023-03-01T04:42:20;101187.78;;;5.09;66.25
58761;BME280;44529;47.464;19.014;2023-03-01T04:45:23;101184.84;;;5.10;66.41
58761;BME280;44529;47.464;19.014;2023-03-01T04:48:26;101176.81;;;5.10;66.40
58761;BME280;44529;47.464;19.014;2023-03-01T04:51:28;101174.53;;;5.02;66.90
58761;BME280;44529;47.464;19.014;2023-03-01T04:54:31;101174.53;;;5.02;66.97
58761;BME280;44529;47.464;19.014;2023-03-01T04:57:34;101172.94;;;5.01;67.31
58761;BME280;44529;47.464;19.014;2023-03-01T05:00:37;101168.63;;;5.00;67.22
58761;BME280;44529;47.464;19.014;2023-03-01T05:03:39;101159.53;;;5.01;67.24
58761;BME280;44529;47.464;19.014;2023-03-01T05:06:44;101169.75;;;5.04;67.05
58761;BME280;44529;47.464;19.014;2023-03-01T05:09:47;101164.94;;;5.06;66.93
58761;BME280;44529;47.464;19.014;2023-03-01T05:12:50;101165.22;;;5.05;67.08
58761;BME280;44529;47.464;19.014;2023-03-01T05:15:56;101178.63;;;5.05;67.29
58761;BME280;44529;47.464;19.014;2023-03-01T05:18:59;101173.50;;;5.03;67.38
58761;BME280;44529;47.464;19.014;2023-03-01T05:22:01;101172.91;;;4.96;68.03
58761;BME280;44529;47.464;19.014;2023-03-01T05:25:04;101183.63;;;4.96;68.04
58761;BME280;44529;47.464;19.014;2023-03-01T05:28:11;101176.37;;;4.97;68.02
58761;BME280;44529;47.464;19.014;2023-03-01T05:31:14;101183.09;;;4.99;67.91
58761;BME280;44529;47.464;19.014;2023-03-01T05:34:16;101181.44;;;4.93;67.54
58761;BME280;44529;47.464;19.014;2023-03-01T05:37:19;101182.84;;;5.01;67.62
58761;BME280;44529;47.464;19.014;2023-03-01T05:40:23;101181.56;;;5.03;67.04
58761;BME280;44529;47.464;19.014;2023-03-01T05:43:30;101180.75;;;5.03;67.66
58761;BME280;44529;47.464;19.014;2023-03-01T05:46:33;101173.75;;;5.02;67.50
58761;BME280;44529;47.464;19.014;2023-03-01T05:49:35;101178.91;;;5.08;67.58
58761;BME280;44529;47.464;19.014;2023-03-01T05:52:40;101176.00;;;5.10;67.39
58761;BME280;44529;47.464;19.014;2023-03-01T05:55:43;101185.66;;;5.11;67.97
58761;BME280;44529;47.464;19.014;2023-03-01T05:58:48;101184.31;;;5.13;67.50
58761;BME280;44529;47.464;19.014;2023-03-01T06:01:50;101189.94;;;5.12;67.99
58761;BME280;44529;47.464;19.014;2023-03-01T06:04:53;101189.13;;;5.11;67.95
58761;BME280;44529;47.464;19.014;2023-03-01T06:07:59;101182.84;;;5.28;67.55
58761;BME280;44529;47.464;19.014;2023-03-01T06:11:02;101193.25;;;5.19;68.01
58761;BME280;44529;47.464;19.014;2023-03-01T06:14:06;101194.03;;;5.20;67.98
58761;BME280;44529;47.464;19.014;2023-03-01T06:17:10;101189.25;;;5.22;67.63
58761;BME280;44529;47.464;19.014;2023-03-01T06:20:21;101186.31;;;5.23;67.47
58761;BME280;44529;47.464;19.014;2023-03-01T06:23:24;101190.34;;;5.26;67.78
58761;BME280;44529;47.464;19.014;2023-03-01T06:26:26;101186.81;;;5.20;68.00
58761;BME280;44529;47.464;19.014;2023-03-01T06:29:29;101191.16;;;5.26;67.49
58761;BME280;44529;47.464;19.014;2023-03-01T06:32:31;101197.09;;;5.28;68.01
58761;BME280;44529;47.464;19.014;2023-03-01T06:35:34;101201.81;;;5.21;68.20
58761;BME280;44529;47.464;19.014;2023-03-01T06:38:37;101208.56;;;5.24;68.11
58761;BME280;44529;47.464;19.014;2023-03-01T06:41:39;101209.44;;;5.29;68.26
58761;BME280;44529;47.464;19.014;2023-03-01T06:44:41;101218.03;;;5.31;67.91
58761;BME280;44529;47.464;19.014;2023-03-01T06:47:45;101221.59;;;5.37;67.71
58761;BME280;44529;47.464;19.014;2023-03-01T06:50:47;101217.69;;;5.50;66.69
58761;BME280;44529;47.464;19.014;2023-03-01T06:53:52;101215.69;;;5.40;67.05
58761;BME280;44529;47.464;19.014;2023-03-01T06:56:54;101208.47;;;5.40;66.90
58761;BME280;44529;47.464;19.014;2023-03-01T07:00:00;101218.19;;;5.47;66.70
58761;BME280;44529;47.464;19.014;2023-03-01T07:03:02;101207.22;;;5.48;66.23
58761;BME280;44529;47.464;19.014;2023-03-01T07:06:05;101213.63;;;5.47;66.19
58761;BME280;44529;47.464;19.014;2023-03-01T07:09:08;101221.44;;;5.49;66.19
58761;BME280;44529;47.464;19.014;2023-03-01T07:12:10;101216.94;;;5.54;66.15
58761;BME280;44529;47.464;19.014;2023-03-01T07:15:13;101210.59;;;5.65;65.64
58761;BME280;44529;47.464;19.014;2023-03-01T07:18:17;101208.47;;;5.67;65.28
58761;BME280;44529;47.464;19.014;2023-03-01T07:21:19;101214.03;;;5.61;66.28
58761;BME280;44529;47.464;19.014;2023-03-01T07:24:22;101207.66;;;5.67;65.29
58761;BME280;44529;47.464;19.014;2023-03-01T07:27:26;101210.91;;;5.69;66.25
58761;BME280;44529;47.464;19.014;2023-03-01T07:30:29;101212.25;;;5.71;65.59
58761;BME280;44529;47.464;19.014;2023-03-01T07:33:33;101215.03;;;5.82;65.14
58761;BME280;44529;47.464;19.014;2023-03-01T07:36:37;101211.31;;;5.88;64.96
58761;BME280;44529;47.464;19.014;2023-03-01T07:39:39;101213.03;;;5.94;64.82
58761;BME280;44529;47.464;19.014;2023-03-01T07:42:42;101223.59;;;6.06;64.42
58761;BME280;44529;47.464;19.014;2023-03-01T07:45:45;101216.13;;;6.13;63.80
58761;BME280;44529;47.464;19.014;2023-03-01T07:48:47;101217.94;;;6.07;63.55
58761;BME280;44529;47.464;19.014;2023-03-01T07:51:49;101207.50;;;6.11;62.86
58761;BME280;44529;47.464;19.014;2023-03-01T07:54:52;101210.06;;;5.95;64.03
58761;BME280;44529;47.464;19.014;2023-03-01T07:57:54;101199.66;;;6.04;63.73
58761;BME280;44529;47.464;19.014;2023-03-01T08:01:03;101201.56;;;6.09;63.92
58761;BME280;44529;47.464;19.014;2023-03-01T08:04:07;101194.91;;;6.16;62.27
58761;BME280;44529;47.464;19.014;2023-03-01T08:07:10;101200.84;;;6.23;63.11
58761;BME280;44529;47.464;19.014;2023-03-01T08:10:13;101203.31;;;6.25;62.82
58761;BME280;44529;47.464;19.014;2023-03-01T08:13:15;101200.06;;;6.23;62.84
58761;BME280;44529;47.464;19.014;2023-03-01T08:16:18;101193.59;;;6.19;62.72
58761;BME280;44529;47.464;19.014;2023-03-01T08:19:20;101194.41;;;6.24;62.06
58761;BME280;44529;47.464;19.014;2023-03-01T08:22:23;101190.47;;;6.37;61.60
58761;BME280;44529;47.464;19.014;2023-03-01T08:25:25;101192.38;;;6.42;60.83
58761;BME280;44529;47.464;19.014;2023-03-01T08:28:28;101186.25;;;6.46;61.82
58761;BME280;44529;47.464;19.014;2023-03-01T08:31:33;101188.44;;;6.60;60.82
58761;BME280;44529;47.464;19.014;2023-03-01T08:34:39;101185.28;;;6.73;60.89
58761;BME280;44529;47.464;19.014;2023-03-01T08:37:43;101180.75;;;6.89;60.51
58761;BME280;44529;47.464;19.014;2023-03-01T08:40:46;101178.94;;;6.99;60.76
58761;BME280;44529;47.464;19.014;2023-03-01T08:43:48;101185.09;;;6.90;59.92
58761;BME280;44529;47.464;19.014;2023-03-01T08:46:51;101179.44;;;6.91;60.46
58761;BME280;44529;47.464;19.014;2023-03-01T08:49:54;101173.84;;;7.03;60.87
58761;BME280;44529;47.464;19.014;2023-03-01T08:52:57;101175.72;;;7.02;60.09
58761;BME280;44529;47.464;19.014;2023-03-01T08:56:00;101178.66;;;7.01;61.25
58761;BME280;44529;47.464;19.014;2023-03-01T08:59:04;101168.72;;;7.01;60.89
58761;BME280;44529;47.464;19.014;2023-03-01T09:02:12;101163.91;;;7.09;59.69
58761;BME280;44529;47.464;19.014;2023-03-01T09:05:16;101147.00;;;7.28;59.19
58761;BME280;44529;47.464;19.014;2023-03-01T09:08:21;101154.56;;;7.42;59.44
58761;BME280;44529;47.464;19.014;2023-03-01T09:11:23;101152.37;;;7.59;58.97
58761;BME280;44529;47.464;19.014;2023-03-01T09:14:26;101159.13;;;7.67;58.58
58761;BME280;44529;47.464;19.014;2023-03-01T09:17:28;101145.37;;;7.78;58.21
58761;BME280;44529;47.464;19.014;2023-03-01T09:20:31;101147.00;;;8.00;58.01
58761;BME280;44529;47.464;19.014;2023-03-01T09:23:38;101148.31;;;8.12;57.62
58761;BME280;44529;47.464;19.014;2023-03-01T09:26:41;101131.31;;;8.27;56.58
58761;BME280;44529;47.464;19.014;2023-03-01T09:29:44;101123.47;;;8.36;55.70
58761;BME280;44529;47.464;19.014;2023-03-01T09:32:47;101121.03;;;8.45;56.11
58761;BME280;44529;47.464;19.014;2023-03-01T09:35:49;101127.19;;;8.55;55.44
58761;BME280;44529;47.464;19.014;2023-03-01T09:38:52;101122.56;;;8.66;55.42
58761;BME280;44529;47.464;19.014;2023-03-01T09:42:04;101112.16;;;8.93;54.29
58761;BME280;44529;47.464;19.014;2023-03-01T09:45:11;101107.81;;;9.03;53.83
58761;BME280;44529;47.464;19.014;2023-03-01T09:48:24;101105.81;;;9.18;53.80
58761;BME280;44529;47.464;19.014;2023-03-01T09:51:33;101102.25;;;9.28;53.92
58761;BME280;44529;47.464;19.014;2023-03-01T09:54:36;101099.56;;;9.23;53.99
58761;BME280;44529;47.464;19.014;2023-03-01T10:01:31;101094.03;;;9.38;53.91
58761;BME280;44529;47.464;19.014;2023-03-01T10:04:51;101095.44;;;9.65;53.66
58761;BME280;44529;47.464;19.014;2023-03-01T10:11:20;101093.78;;;9.69;52.79
58761;BME280;44529;47.464;19.014;2023-03-01T10:17:48;101084.84;;;9.73;51.88
58761;BME280;44529;47.464;19.014;2023-03-01T10:21:15;101068.72;;;9.63;52.51
58761;BME280;44529;47.464;19.014;2023-03-01T10:24:19;101061.88;;;9.71;51.97
58761;BME280;44529;47.464;19.014;2023-03-01T10:27:34;101066.00;;;9.92;51.42
58761;BME280;44529;47.464;19.014;2023-03-01T10:30:41;101062.78;;;9.90;51.20
58761;BME280;44529;47.464;19.014;2023-03-01T10:33:46;101055.47;;;9.91;51.45
58761;BME280;44529;47.464;19.014;2023-03-01T10:36:53;101055.25;;;9.87;51.36
58761;BME280;44529;47.464;19.014;2023-03-01T10:40:18;101046.63;;;9.85;51.08
58761;BME280;44529;47.464;19.014;2023-03-01T10:43:47;101051.69;;;9.92;51.06
58761;BME280;44529;47.464;19.014;2023-03-01T10:46:59;101045.25;;;10.12;51.14
58761;BME280;44529;47.464;19.014;2023-03-01T10:50:05;101036.22;;;10.21;51.04
58761;BME280;44529;47.464;19.014;2023-03-01T10:53:38;101029.56;;;10.38;50.75
58761;BME280;44529;47.464;19.014;2023-03-01T10:56:51;101025.59;;;10.30;50.75
58761;BME280;44529;47.464;19.014;2023-03-01T11:00:16;101017.94;;;10.37;50.24
58761;BME280;44529;47.464;19.014;2023-03-01T11:03:33;100998.28;;;10.50;50.44
58761;BME280;44529;47.464;19.014;2023-03-01T11:06:40;101009.31;;;10.54;50.02
58761;BME280;44529;47.464;19.014;2023-03-01T11:09:43;101010.34;;;10.39;50.40
58761;BME280;44529;47.464;19.014;2023-03-01T11:12:45;101011.94;;;10.40;50.58
58761;BME280;44529;47.464;19.014;2023-03-01T11:16:02;101004.78;;;10.49;50.95
58761;BME280;44529;47.464;19.014;2023-03-01T11:22:14;100988.34;;;10.65;49.26
58761;BME280;44529;47.464;19.014;2023-03-01T11:25:37;100983.75;;;10.65;50.46
58761;BME280;44529;47.464;19.014;2023-03-01T11:28:42;100989.44;;;10.82;50.17
58761;BME280;44529;47.464;19.014;2023-03-01T11:31:57;100986.72;;;10.82;49.52
58761;BME280;44529;47.464;19.014;2023-03-01T11:35:09;100985.66;;;10.97;49.51
58761;BME280;44529;47.464;19.014;2023-03-01T11:38:23;100981.78;;;11.03;49.19
58761;BME280;44529;47.464;19.014;2023-03-01T11:41:30;100980.63;;;11.23;49.11
58761;BME280;44529;47.464;19.014;2023-03-01T11:44:37;100980.31;;;11.25;48.10
58761;BME280;44529;47.464;19.014;2023-03-01T11:47:48;100975.84;;;11.34;47.92
58761;BME280;44529;47.464;19.014;2023-03-01T11:50:56;100970.53;;;11.56;47.71
58761;BME280;44529;47.464;19.014;2023-03-01T11:54:09;100979.28;;;11.53;47.42
58761;BME280;44529;47.464;19.014;2023-03-01T11:57:51;100972.75;;;11.41;47.45
58761;BME280;44529;47.464;19.014;2023-03-01T12:01:31;100974.75;;;11.49;47.74
58761;BME280;44529;47.464;19.014;2023-03-01T12:08:15;100965.69;;;11.26;48.29
58761;BME280;44529;47.464;19.014;2023-03-01T12:25:13;100932.22;;;11.35;49.73
58761;BME280;44529;47.464;19.014;2023-03-01T12:28:32;100920.19;;;11.55;49.89
58761;BME280;44529;47.464;19.014;2023-03-01T12:31:43;100920.50;;;11.68;48.62
58761;BME280;44529;47.464;19.014;2023-03-01T12:38:22;100909.66;;;11.40;48.11
58761;BME280;44529;47.464;19.014;2023-03-01T12:48:13;100911.94;;;11.33;49.07
58761;BME280;44529;47.464;19.014;2023-03-01T12:51:24;100902.13;;;11.37;48.67
58761;BME280;44529;47.464;19.014;2023-03-01T12:54:33;100903.62;;;11.43;48.23
58761;BME280;44529;47.464;19.014;2023-03-01T12:57:43;100905.84;;;11.41;49.08
58761;BME280;44529;47.464;19.014;2023-03-01T13:01:13;100907.44;;;11.42;49.20
58761;BME280;44529;47.464;19.014;2023-03-01T13:11:32;100902.34;;;11.41;48.49
58761;BME280;44529;47.464;19.014;2023-03-01T13:14:44;100902.13;;;11.37;48.94
58761;BME280;44529;47.464;19.014;2023-03-01T13:17:49;100895.28;;;11.26;48.63
58761;BME280;44529;47.464;19.014;2023-03-01T13:20:58;100889.78;;;11.31;49.33
58761;BME280;44529;47.464;19.014;2023-03-01T13:27:34;100882.75;;;11.71;48.21
58761;BME280;44529;47.464;19.014;2023-03-01T13:30:44;100871.72;;;11.68;47.83
58761;BME280;44529;47.464;19.014;2023-03-01T13:33:54;100876.12;;;11.63;48.38
58761;BME280;44529;47.464;19.014;2023-03-01T13:37:17;100866.09;;;11.64;48.30
58761;BME280;44529;47.464;19.014;2023-03-01T13:43:32;100857.41;;;12.03;47.18
58761;BME280;44529;47.464;19.014;2023-03-01T13:46:38;100866.81;;;12.19;46.74
58761;BME280;44529;47.464;19.014;2023-03-01T13:49:46;100855.91;;;12.33;46.65
58761;BME280;44529;47.464;19.014;2023-03-01T13:52:55;100850.06;;;12.40;46.31
58761;BME280;44529;47.464;19.014;2023-03-01T13:56:09;100842.16;;;12.30;45.76
58761;BME280;44529;47.464;19.014;2023-03-01T13:59:16;100840.91;;;12.36;46.51
58761;BME280;44529;47.464;19.014;2023-03-01T14:02:20;100837.59;;;12.39;46.82
58761;BME280;44529;47.464;19.014;2023-03-01T14:05:22;100843.59;;;12.50;46.45
58761;BME280;44529;47.464;19.014;2023-03-01T14:08:28;100834.38;;;12.59;45.76
58761;BME280;44529;47.464;19.014;2023-03-01T14:15:00;100827.16;;;12.55;46.22
58761;BME280;44529;47.464;19.014;2023-03-01T14:18:25;100819.34;;;12.53;46.00
58761;BME280;44529;47.464;19.014;2023-03-01T14:21:30;100820.50;;;12.61;46.42
58761;BME280;44529;47.464;19.014;2023-03-01T14:24:38;100803.78;;;12.67;46.37
58761;BME280;44529;47.464;19.014;2023-03-01T14:27:42;100811.25;;;12.62;46.50
58761;BME280;44529;47.464;19.014;2023-03-01T14:30:48;100804.56;;;12.68;46.15
58761;BME280;44529;47.464;19.014;2023-03-01T14:33:55;100802.72;;;12.77;46.21
58761;BME280;44529;47.464;19.014;2023-03-01T14:37:10;100799.22;;;12.77;45.63
58761;BME280;44529;47.464;19.014;2023-03-01T14:40:26;100786.91;;;12.79;45.33
58761;BME280;44529;47.464;19.014;2023-03-01T14:43:29;100784.38;;;12.83;45.88
58761;BME280;44529;47.464;19.014;2023-03-01T14:46:35;100783.06;;;12.71;45.86
58761;BME280;44529;47.464;19.014;2023-03-01T14:49:39;100783.22;;;12.75;45.92
58761;BME280;44529;47.464;19.014;2023-03-01T14:52:45;100773.91;;;12.59;46.30
58761;BME280;44529;47.464;19.014;2023-03-01T14:55:54;100781.72;;;12.60;46.53
58761;BME280;44529;47.464;19.014;2023-03-01T14:58:58;100783.19;;;12.66;46.46
58761;BME280;44529;47.464;19.014;2023-03-01T15:02:01;100764.75;;;12.86;46.02
58761;BME280;44529;47.464;19.014;2023-03-01T15:05:05;100771.25;;;13.16;45.35
58761;BME280;44529;47.464;19.014;2023-03-01T15:08:20;100771.12;;;12.81;46.94
58761;BME280;44529;47.464;19.014;2023-03-01T15:11:30;100764.53;;;12.73;47.61
58761;BME280;44529;47.464;19.014;2023-03-01T15:14:41;100772.06;;;12.77;46.07
58761;BME280;44529;47.464;19.014;2023-03-01T15:17:56;100774.72;;;12.68;46.85
58761;BME280;44529;47.464;19.014;2023-03-01T15:21:24;100768.94;;;12.61;46.93
58761;BME280;44529;47.464;19.014;2023-03-01T15:24:27;100765.94;;;12.62;47.53
58761;BME280;44529;47.464;19.014;2023-03-01T15:27:31;100774.00;;;12.45;47.11
58761;BME280;44529;47.464;19.014;2023-03-01T15:30:35;100778.53;;;12.36;47.65
58761;BME280;44529;47.464;19.014;2023-03-01T15:33:40;100776.22;;;12.20;48.13
58761;BME280;44529;47.464;19.014;2023-03-01T15:36:53;100775.50;;;12.06;48.90
58761;BME280;44529;47.464;19.014;2023-03-01T15:39:57;100764.66;;;12.06;48.77
58761;BME280;44529;47.464;19.014;2023-03-01T15:43:01;100769.56;;;11.82;49.93
58761;BME280;44529;47.464;19.014;2023-03-01T15:46:04;100768.38;;;11.74;49.59
58761;BME280;44529;47.464;19.014;2023-03-01T15:49:40;100765.97;;;11.59;50.30
58761;BME280;44529;47.464;19.014;2023-03-01T15:52:57;100766.53;;;11.47;50.08
58761;BME280;44529;47.464;19.014;2023-03-01T15:56:00;100769.72;;;11.49;50.72
58761;BME280;44529;47.464;19.014;2023-03-01T15:59:03;100761.91;;;11.48;51.22
58761;BME280;44529;47.464;19.014;2023-03-01T16:02:10;100766.84;;;11.32;51.09
58761;BME280;44529;47.464;19.014;2023-03-01T16:08:25;100782.09;;;11.00;52.00
58761;BME280;44529;47.464;19.014;2023-03-01T16:11:27;100777.72;;;10.91;52.00
58761;BME280;44529;47.464;19.014;2023-03-01T16:14:29;100777.62;;;10.82;52.68
58761;BME280;44529;47.464;19.014;2023-03-01T16:17:32;100780.81;;;10.70;53.03
58761;BME280;44529;47.464;19.014;2023-03-01T16:20:34;100781.78;;;10.61;53.06
58761;BME280;44529;47.464;19.014;2023-03-01T16:23:37;100785.75;;;10.49;54.23
58761;BME280;44529;47.464;19.014;2023-03-01T16:26:39;100779.75;;;10.39;54.65
58761;BME280;44529;47.464;19.014;2023-03-01T16:29:41;100789.34;;;10.31;54.79
58761;BME280;44529;47.464;19.014;2023-03-01T16:32:45;100800.06;;;10.17;54.65
58761;BME280;44529;47.464;19.014;2023-03-01T16:35:48;100789.72;;;10.06;55.93
58761;BME280;44529;47.464;19.014;2023-03-01T16:38:51;100792.00;;;9.98;56.65
58761;BME280;44529;47.464;19.014;2023-03-01T16:41:55;100802.34;;;9.91;55.58
58761;BME280;44529;47.464;19.014;2023-03-01T16:44:58;100801.91;;;9.84;55.13
58761;BME280;44529;47.464;19.014;2023-03-01T16:48:01;100805.59;;;9.74;55.62
58761;BME280;44529;47.464;19.014;2023-03-01T16:51:03;100813.25;;;9.67;56.61
58761;BME280;44529;47.464;19.014;2023-03-01T16:54:06;100810.09;;;9.60;56.64
58761;BME280;44529;47.464;19.014;2023-03-01T16:57:08;100809.44;;;9.49;57.21
58761;BME280;44529;47.464;19.014;2023-03-01T17:00:13;100804.31;;;9.48;57.94
58761;BME280;44529;47.464;19.014;2023-03-01T17:03:15;100806.78;;;9.44;58.23
58761;BME280;44529;47.464;19.014;2023-03-01T17:06:20;100819.28;;;9.40;58.17
58761;BME280;44529;47.464;19.014;2023-03-01T17:09:24;100813.50;;;9.28;59.22
58761;BME280;44529;47.464;19.014;2023-03-01T17:12:26;100818.06;;;9.04;61.04
58761;BME280;44529;47.464;19.014;2023-03-01T17:15:30;100826.28;;;8.93;61.06